Time;durP1;ratioP1;P1;durP2;ratioP2;P2;SDS_P1;SDS_P2;PMS_P1;PMS_P2;Temp;Humidity;BMP_temperature;BMP_pressure;BME280_temperature;BME280_humidity;BME280_pressure;Samples;Min_cycle;Max_cycle;Signal;HPM_P1;HPM_P2
2022/09/28 00:01:26;;;;;;;;;;;;;;;20.66;49.82;99207.09;5027255;28;19925;-44
2022/09/28 00:03:53;;;;;;;;;;;;;;;20.65;49.99;99199.94;5029409;28;19932;-43
2022/09/28 00:06:20;;;;;;;;;;;;;;;20.64;50.05;99198.31;5011548;28;19965;-47
2022/09/28 00:08:45;;;;;;;;;;;;;;;20.66;49.89;99197.97;5030408;28;19968;-46
2022/09/28 00:11:12;;;;;;;;;;;;;;;20.67;49.73;99203.16;5027562;28;19955;-44
2022/09/28 00:13:39;;;;;;;;;;;;;;;20.66;49.93;99198.78;5029296;28;20015;-45
2022/09/28 00:16:05;;;;;;;;;;;;;;;20.65;50.26;99197.19;5027099;28;20019;-46
2022/09/28 00:18:31;;;;;;;;;;;;;;;20.66;49.81;99196.03;5012493;28;20395;-46
2022/09/28 00:20:58;;;;;;;;;;;;;;;20.67;50.03;99191.31;5030065;28;20012;-44
2022/09/28 00:23:24;;;;;;;;;;;;;;;20.66;49.88;99192.44;5030771;28;20023;-44
2022/09/28 00:25:49;;;;;;;;;;;;;;;20.66;49.93;99182.19;5027979;28;19936;-44
2022/09/28 00:28:15;;;;;;;;;;;;;;;20.65;49.75;99188.88;5030368;28;19991;-43
2022/09/28 00:30:41;;;;;;;;;;;;;;;20.66;49.82;99187.72;5028916;28;19933;-45
2022/09/28 00:33:06;;;;;;;;;;;;;;;20.65;49.84;99188.06;5029888;28;19937;-44
2022/09/28 00:35:32;;;;;;;;;;;;;;;20.65;50.24;99177.00;5027599;28;19967;-44
2022/09/28 00:37:57;;;;;;;;;;;;;;;20.65;49.83;99183.34;5029588;28;19929;-47
2022/09/28 00:40:23;;;;;;;;;;;;;;;20.68;49.85;99176.31;5026140;28;20629;-44
2022/09/28 00:42:48;;;;;;;;;;;;;;;20.66;49.82;99176.66;5027449;28;19925;-44
2022/09/28 00:45:14;;;;;;;;;;;;;;;20.65;49.75;99169.50;5026751;28;20052;-45
2022/09/28 00:47:42;;;;;;;;;;;;;;;20.66;49.78;99173.09;5027777;28;20024;-47
2022/09/28 00:53:00;;;;;;;;;;;;;;;20.65;49.79;99166.75;5179915;27;20285;-50
2022/09/28 00:55:29;;;;;;;;;;;;;;;20.64;49.91;99164.31;5127409;27;19931;-49
2022/09/28 00:57:55;;;;;;;;;;;;;;;20.63;49.81;99159.91;5124515;27;20258;-46
2022/09/28 01:00:21;;;;;;;;;;;;;;;20.64;49.84;99153.22;5161204;27;19971;-49
2022/09/28 01:02:47;;;;;;;;;;;;;;;20.63;49.97;99165.44;5155911;27;19930;-44
2022/09/28 01:05:12;;;;;;;;;;;;;;;20.65;49.80;99163.19;5162878;27;19930;-45
2022/09/28 01:07:38;;;;;;;;;;;;;;;20.64;49.78;99158.78;5155332;27;19927;-46
2022/09/28 01:10:04;;;;;;;;;;;;;;;20.64;49.93;99156.00;5160417;27;20358;-46
2022/09/28 01:12:30;;;;;;;;;;;;;;;20.64;49.89;99159.59;5158919;27;20369;-44
2022/09/28 01:14:55;;;;;;;;;;;;;;;20.64;49.78;99161.53;5162812;27;19931;-44
2022/09/28 01:17:24;;;;;;;;;;;;;;;20.65;49.73;99168.72;5157168;27;19927;-44
2022/09/28 01:20:09;;;;;;;;;;;;;;;20.65;49.78;99165.94;5141083;27;20010;-46
2022/09/28 01:22:43;;;;;;;;;;;;;;;20.65;49.83;99165.94;5138950;27;20009;-46
2022/09/28 01:25:10;;;;;;;;;;;;;;;20.64;49.76;99167.91;5159148;27;19955;-44
2022/09/28 01:27:41;;;;;;;;;;;;;;;20.64;49.82;99170.66;5139226;27;21465;-45
2022/09/28 01:30:08;;;;;;;;;;;;;;;20.64;49.81;99169.84;5157934;27;19958;-48
2022/09/28 01:32:35;;;;;;;;;;;;;;;20.64;49.70;99167.91;5160633;27;20421;-44
2022/09/28 01:35:21;;;;;;;;;;;;;;;20.64;49.79;99162.38;5162905;27;19965;-44
2022/09/28 01:37:51;;;;;;;;;;;;;;;20.64;49.82;99161.53;5145958;27;20022;-46
2022/09/28 01:40:16;;;;;;;;;;;;;;;20.64;49.66;99158.78;5160252;27;20425;-45
2022/09/28 01:42:43;;;;;;;;;;;;;;;20.63;49.90;99155.19;5160785;27;19970;-45
2022/09/28 01:45:10;;;;;;;;;;;;;;;20.63;49.82;99159.91;5158095;27;20364;-44
2022/09/28 01:47:36;;;;;;;;;;;;;;;20.63;49.80;99165.44;5160320;27;20046;-44
2022/09/28 01:50:10;;;;;;;;;;;;;;;20.63;49.84;99165.44;5160686;27;19965;-46
2022/09/28 01:52:44;;;;;;;;;;;;;;;20.65;49.79;99160.41;5138620;27;20014;-44
2022/09/28 01:55:11;;;;;;;;;;;;;;;20.64;49.86;99156.84;5166215;27;20014;-45
2022/09/28 01:57:40;;;;;;;;;;;;;;;20.64;49.63;99162.38;5150014;27;19931;-44
2022/09/28 02:00:07;;;;;;;;;;;;;;;20.63;49.92;99149.66;5157074;27;20450;-45
2022/09/28 02:02:34;;;;;;;;;;;;;;;20.63;49.80;99149.66;5139908;27;20060;-46
2022/09/28 02:05:04;;;;;;;;;;;;;;;20.63;49.82;99155.19;5146481;27;19991;-44
2022/09/28 02:07:32;;;;;;;;;;;;;;;20.63;49.63;99149.66;5121961;27;20387;-45
2022/09/28 02:09:59;;;;;;;;;;;;;;;20.62;49.75;99152.78;5150004;27;20030;-45
2022/09/28 02:12:28;;;;;;;;;;;;;;;20.64;49.68;99153.22;5143345;27;19923;-44
2022/09/28 02:14:54;;;;;;;;;;;;;;;20.64;49.73;99142.16;5144684;27;20045;-45
2022/09/28 02:17:20;;;;;;;;;;;;;;;20.64;49.74;99142.16;5143185;27;20015;-45
2022/09/28 02:19:45;;;;;;;;;;;;;;;20.63;49.74;99149.66;5155628;27;19923;-45
2022/09/28 02:22:21;;;;;;;;;;;;;;;20.63;49.64;99140.56;5136440;27;19932;-44
2022/09/28 02:24:55;;;;;;;;;;;;;;;20.62;49.56;99147.25;5146418;27;19955;-48
2022/09/28 02:27:24;;;;;;;;;;;;;;;20.65;49.74;99154.88;5144810;27;20014;-47
2022/09/28 02:29:50;;;;;;;;;;;;;;;20.62;49.73;99148.03;5147419;27;20037;-50
2022/09/28 02:32:15;;;;;;;;;;;;;;;20.62;49.65;99148.03;5148419;27;19988;-45
2022/09/28 02:34:41;;;;;;;;;;;;;;;20.63;49.77;99143.31;5148931;27;19929;-45
2022/09/28 02:37:06;;;;;;;;;;;;;;;20.62;49.59;99150.81;5141618;27;20366;-44
2022/09/28 02:39:32;;;;;;;;;;;;;;;20.62;49.63;99150.81;5143916;27;19930;-45
2022/09/28 02:42:18;;;;;;;;;;;;;;;20.62;49.76;99152.78;5147196;27;19930;-44
2022/09/28 02:45:03;;;;;;;;;;;;;;;20.62;49.58;99153.59;5125448;27;20438;-44
2022/09/28 02:47:34;;;;;;;;;;;;;;;20.61;49.71;99151.16;5134897;27;20002;-51
2022/09/28 02:50:20;;;;;;;;;;;;;;;20.63;49.58;99148.84;5139744;27;19976;-44
2022/09/28 02:52:58;;;;;;;;;;;;;;;20.62;49.61;99152.78;5124412;27;20691;-45
2022/09/28 02:55:35;;;;;;;;;;;;;;;20.63;49.66;99157.97;5137676;27;20080;-46
2022/09/28 02:58:20;;;;;;;;;;;;;;;20.61;49.58;99146.44;5142509;27;19966;-47
2022/09/28 03:00:51;;;;;;;;;;;;;;;20.62;49.59;99150.81;5127669;27;20458;-47
2022/09/28 03:03:17;;;;;;;;;;;;;;;20.62;49.57;99156.34;5122127;27;19977;-45
2022/09/28 03:05:46;;;;;;;;;;;;;;;20.63;49.50;99163.50;5138358;27;20013;-46
2022/09/28 03:08:18;;;;;;;;;;;;;;;20.63;49.49;99148.84;5139611;27;19931;-45
2022/09/28 03:10:45;;;;;;;;;;;;;;;20.64;49.51;99164.31;5150008;27;20034;-46
2022/09/28 03:13:11;;;;;;;;;;;;;;;20.64;49.49;99161.53;5147439;27;19973;-45
2022/09/28 03:15:36;;;;;;;;;;;;;;;20.63;49.70;99157.97;5137792;27;19932;-48
2022/09/28 03:18:02;;;;;;;;;;;;;;;20.62;49.50;99161.88;5120797;27;19982;-47
2022/09/28 03:20:28;;;;;;;;;;;;;;;20.62;49.56;99167.41;5146906;27;19923;-46
2022/09/28 03:22:54;;;;;;;;;;;;;;;20.63;49.54;99171.78;5143141;27;19971;-47
2022/09/28 03:25:39;;;;;;;;;;;;;;;20.64;49.42;99167.06;5126042;27;19954;-46
2022/09/28 03:28:05;;;;;;;;;;;;;;;20.63;49.51;99165.44;5145171;27;19923;-46
2022/09/28 03:30:30;;;;;;;;;;;;;;;20.61;49.53;99168.56;5140252;27;20197;-47
2022/09/28 03:32:58;;;;;;;;;;;;;;;20.61;49.76;99164.97;5145671;27;20294;-47
2022/09/28 03:35:23;;;;;;;;;;;;;;;20.63;49.57;99168.22;5145978;27;20010;-47
2022/09/28 03:37:49;;;;;;;;;;;;;;;20.62;49.51;99166.59;5142648;27;19931;-46
2022/09/28 03:40:14;;;;;;;;;;;;;;;20.62;49.72;99172.13;5145957;27;19932;-46
2022/09/28 03:42:42;;;;;;;;;;;;;;;20.61;49.73;99162.22;5142165;27;19923;-48
2022/09/28 03:45:08;;;;;;;;;;;;;;;20.61;49.66;99164.97;5144061;27;20109;-46
2022/09/28 03:47:33;;;;;;;;;;;;;;;20.62;49.47;99166.59;5140029;27;19935;-45
2022/09/28 03:49:59;;;;;;;;;;;;;;;20.61;49.51;99164.97;5141314;27;19923;-48
2022/09/28 03:52:25;;;;;;;;;;;;;;;20.60;49.60;99161.41;5145287;27;19931;-47
2022/09/28 03:54:50;;;;;;;;;;;;;;;20.61;49.69;99163.03;5142680;27;19931;-46
2022/09/28 03:57:16;;;;;;;;;;;;;;;20.62;49.60;99163.84;5148588;27;20580;-48
2022/09/28 03:59:41;;;;;;;;;;;;;;;20.60;49.61;99166.94;5142667;27;19943;-47
2022/09/28 04:02:07;;;;;;;;;;;;;;;20.60;49.60;99157.84;5144409;27;19934;-47
2022/09/28 04:04:32;;;;;;;;;;;;;;;20.60;49.74;99155.88;5139656;27;20358;-46
2022/09/28 04:06:58;;;;;;;;;;;;;;;20.60;49.67;99161.41;5145578;27;20410;-45
2022/09/28 04:09:24;;;;;;;;;;;;;;;20.62;49.54;99161.06;5145673;27;19985;-48
2022/09/28 04:11:49;;;;;;;;;;;;;;;20.62;49.55;99161.06;5121991;27;19934;-47
2022/09/28 04:14:29;;;;;;;;;;;;;;;20.61;49.61;99157.50;5144178;27;20194;-46
2022/09/28 04:16:54;;;;;;;;;;;;;;;20.62;49.67;99158.31;5144633;27;19923;-46
2022/09/28 04:19:21;;;;;;;;;;;;;;;20.61;49.47;99163.03;5143406;27;19927;-48
2022/09/28 04:21:46;;;;;;;;;;;;;;;20.61;49.61;99151.16;5142679;27;19962;-46
2022/09/28 04:24:13;;;;;;;;;;;;;;;20.62;49.47;99163.84;5138392;27;20068;-48
2022/09/28 04:26:38;;;;;;;;;;;;;;;20.61;49.38;99162.22;5522803;22;19974;-45
2022/09/28 04:29:19;;;;;;;;;;;;;;;20.61;49.46;99173.28;5092134;28;19971;-47
2022/09/28 04:31:46;;;;;;;;;;;;;;;20.61;49.63;99168.56;5116688;28;19931;-46
2022/09/28 04:34:13;;;;;;;;;;;;;;;20.61;49.53;99162.22;5113631;28;19985;-45
2022/09/28 04:36:39;;;;;;;;;;;;;;;20.62;49.61;99164.66;5093463;28;20018;-47
2022/09/28 04:39:05;;;;;;;;;;;;;;;20.61;49.53;99168.56;5114555;28;20313;-47
2022/09/28 04:41:30;;;;;;;;;;;;;;;20.61;49.58;99165.78;5113929;28;19963;-46
2022/09/28 04:43:56;;;;;;;;;;;;;;;20.63;49.50;99165.44;5094335;28;20413;-47
2022/09/28 04:46:21;;;;;;;;;;;;;;;20.62;49.66;99161.88;5112586;28;19931;-46
2022/09/28 04:48:47;;;;;;;;;;;;;;;20.62;49.54;99163.84;5111639;28;19932;-47
2022/09/28 04:51:12;;;;;;;;;;;;;;;20.61;49.43;99171.31;5116835;28;19923;-45
2022/09/28 04:53:38;;;;;;;;;;;;;;;20.62;49.38;99161.06;5112458;28;19924;-47
2022/09/28 04:56:05;;;;;;;;;;;;;;;20.62;49.25;99163.84;5277519;22;19931;-47
2022/09/28 04:58:31;;;;;;;;;;;;;;;20.59;49.58;99165.31;5069463;28;20016;-46
2022/09/28 05:00:58;;;;;;;;;;;;;;;20.59;49.46;99164.50;5089005;28;19932;-45
2022/09/28 05:03:23;;;;;;;;;;;;;;;20.55;48.50;99161.56;5072671;28;19928;-46
2022/09/28 05:05:49;;;;;;;;;;;;;;;20.53;48.13;99163.88;5089881;28;19928;-45
2022/09/28 05:08:14;;;;;;;;;;;;;;;20.52;47.11;99163.06;5091457;28;19931;-47
2022/09/28 05:10:40;;;;;;;;;;;;;;;20.54;46.93;99159.97;5093808;28;19924;-46
2022/09/28 05:13:06;;;;;;;;;;;;;;;20.56;47.09;99156.88;5088677;28;19947;-45
2022/09/28 05:15:33;;;;;;;;;;;;;;;20.56;47.57;99159.66;5094771;28;19986;-45
2022/09/28 05:17:59;;;;;;;;;;;;;;;20.57;48.03;99164.03;5069455;28;19986;-46
2022/09/28 05:20:24;;;;;;;;;;;;;;;20.58;47.84;99166.44;5090478;28;19928;-45
2022/09/28 05:22:50;;;;;;;;;;;;;;;20.58;48.32;99165.66;5095579;28;19931;-47
2022/09/28 05:25:16;;;;;;;;;;;;;;;20.60;48.15;99177.19;5092774;28;19932;-46
2022/09/28 05:27:41;;;;;;;;;;;;;;;20.59;48.36;99168.06;5087787;28;19936;-46
2022/09/28 05:30:07;;;;;;;;;;;;;;;20.59;48.57;99172.78;5088475;28;19932;-45
2022/09/28 05:32:33;;;;;;;;;;;;;;;20.60;48.60;99183.53;5098095;28;20406;-47
2022/09/28 05:35:00;;;;;;;;;;;;;;;20.61;48.62;99178.81;5091478;28;19924;-48
2022/09/28 05:37:25;;;;;;;;;;;;;;;20.59;48.73;99178.31;5092997;28;20035;-46
2022/09/28 05:39:51;;;;;;;;;;;;;;;20.58;48.78;99180.28;5090879;28;19923;-47
2022/09/28 05:42:16;;;;;;;;;;;;;;;20.54;48.48;99176.56;5094808;28;19935;-48
2022/09/28 05:44:42;;;;;;;;;;;;;;;20.52;47.97;99179.66;5094755;28;20004;-46
2022/09/28 05:47:07;;;;;;;;;;;;;;;20.51;47.18;99177.25;5092057;28;19936;-48
2022/09/28 05:49:33;;;;;;;;;;;;;;;20.50;47.77;99179.16;5092923;28;19928;-47
2022/09/28 05:51:58;;;;;;;;;;;;;;;20.51;47.56;99180.81;5093636;28;21083;-46
2022/09/28 05:54:24;;;;;;;;;;;;;;;20.50;47.78;99187.47;5089594;28;19924;-47
2022/09/28 05:56:49;;;;;;;;;;;;;;;20.50;48.79;99189.41;5093577;28;19928;-45
2022/09/28 05:59:15;;;;;;;;;;;;;;;20.51;47.54;99185.53;5088011;28;20275;-49
2022/09/28 06:01:41;;;;;;;;;;;;;;;20.52;48.52;99187.16;5097759;28;19932;-46
2022/09/28 06:04:07;;;;;;;;;;;;;;;20.54;48.44;99195.91;5087225;28;19932;-51
2022/09/28 06:06:33;;;;;;;;;;;;;;;20.56;48.47;99182.56;5071120;28;20038;-46
2022/09/28 06:08:59;;;;;;;;;;;;;;;20.55;48.77;99183.69;5087044;28;19936;-46
2022/09/28 06:11:26;;;;;;;;;;;;;;;20.56;48.84;99190.06;5090931;28;20018;-47
2022/09/28 06:13:52;;;;;;;;;;;;;;;20.56;48.92;99192.84;5095717;28;19963;-46
2022/09/28 06:16:18;;;;;;;;;;;;;;;20.56;48.66;99196.41;5091707;28;19972;-47
2022/09/28 06:18:44;;;;;;;;;;;;;;;20.56;49.00;99192.84;5083013;28;19924;-50
2022/09/28 06:21:11;;;;;;;;;;;;;;;20.55;48.92;99197.53;5089566;28;19938;-49
2022/09/28 06:23:37;;;;;;;;;;;;;;;20.56;48.88;99198.38;5089244;28;20442;-48
2022/09/28 06:26:02;;;;;;;;;;;;;;;20.56;49.04;99199.16;5089618;28;19939;-48
2022/09/28 06:28:28;;;;;;;;;;;;;;;20.57;49.14;99203.56;5088171;28;20677;-47
2022/09/28 06:30:53;;;;;;;;;;;;;;;20.58;49.21;99201.59;5084474;28;19934;-45
2022/09/28 06:33:19;;;;;;;;;;;;;;;20.59;49.26;99205.97;5093708;28;19924;-46
2022/09/28 06:35:44;;;;;;;;;;;;;;;20.59;49.03;99211.50;5087117;28;19937;-46
2022/09/28 06:38:10;;;;;;;;;;;;;;;20.59;49.06;99217.84;5085655;28;19943;-45
2022/09/28 06:40:36;;;;;;;;;;;;;;;20.59;49.07;99226.16;5080184;28;19943;-51
2022/09/28 06:43:05;;;;;;;;;;;;;;;20.58;48.96;99227.28;5052970;28;20024;-49
2022/09/28 06:45:31;;;;;;;;;;;;;;;20.59;48.85;99231.69;5081570;28;20110;-50
2022/09/28 06:47:57;;;;;;;;;;;;;;;20.58;48.74;99235.59;5081085;28;19932;-50
2022/09/28 06:50:24;;;;;;;;;;;;;;;20.58;48.74;99243.09;5061435;28;20745;-49
2022/09/28 06:52:50;;;;;;;;;;;;;;;20.62;48.88;99235.75;5057358;28;20417;-51
2022/09/28 06:55:16;;;;;;;;;;;;;;;20.60;48.67;99243.56;5057072;28;19924;-51
2022/09/28 06:57:41;;;;;;;;;;;;;;;20.58;48.67;99238.34;5060634;28;19963;-49
2022/09/28 07:00:07;;;;;;;;;;;;;;;20.56;48.62;99235.13;5068375;28;19935;-51
2022/09/28 07:02:33;;;;;;;;;;;;;;;20.59;48.69;99241.94;5067572;28;19930;-52
2022/09/28 07:04:58;;;;;;;;;;;;;;;20.57;48.53;99247.00;5064810;28;19932;-48
2022/09/28 07:07:24;;;;;;;;;;;;;;;20.57;48.60;99245.03;5056745;28;20802;-50
2022/09/28 07:09:53;;;;;;;;;;;;;;;20.58;48.53;99251.38;5062652;28;19935;-48
2022/09/28 07:12:22;;;;;;;;;;;;;;;20.57;48.36;99253.34;5045439;28;19940;-48
2022/09/28 07:14:48;;;;;;;;;;;;;;;20.59;48.32;99261.28;5075429;28;20030;-47
2022/09/28 07:17:15;;;;;;;;;;;;;;;20.58;48.48;99251.38;5067737;28;20577;-50
2022/09/28 07:19:40;;;;;;;;;;;;;;;20.59;48.47;99253.81;5073114;28;20406;-47
2022/09/28 07:22:06;;;;;;;;;;;;;;;20.59;48.36;99259.34;5073110;28;19940;-47
2022/09/28 07:24:31;;;;;;;;;;;;;;;20.58;48.68;99252.19;5072560;28;19924;-48
2022/09/28 07:26:57;;;;;;;;;;;;;;;20.60;48.48;99254.63;5066388;28;19928;-50
2022/09/28 07:29:23;;;;;;;;;;;;;;;20.61;48.33;99259.03;5076855;28;19950;-49
2022/09/28 07:31:48;;;;;;;;;;;;;;;20.50;48.30;99264.09;5075455;28;19932;-50
2022/09/28 07:34:14;;;;;;;;;;;;;;;20.57;48.27;99261.63;5074537;28;19932;-49
2022/09/28 07:36:39;;;;;;;;;;;;;;;20.54;47.91;99259.53;5067832;28;20292;-49
2022/09/28 07:39:05;;;;;;;;;;;;;;;20.58;48.24;99270.75;5073584;28;19973;-51
2022/09/28 07:41:31;;;;;;;;;;;;;;;20.60;48.39;99265.69;5062536;28;19936;-48
2022/09/28 07:43:58;;;;;;;;;;;;;;;20.60;48.34;99271.22;5080393;28;19950;-52
2022/09/28 07:46:24;;;;;;;;;;;;;;;20.60;48.29;99277.56;5071482;28;19964;-51
2022/09/28 07:48:50;;;;;;;;;;;;;;;20.61;48.47;99279.19;5067575;28;19943;-51
2022/09/28 07:51:18;;;;;;;;;;;;;;;20.60;48.64;99280.34;5072691;28;19967;-51
2022/09/28 07:53:44;;;;;;;;;;;;;;;20.60;48.49;99277.56;5077673;28;20042;-53
2022/09/28 07:56:10;;;;;;;;;;;;;;;20.61;48.48;99275.63;5057230;28;20022;-50
2022/09/28 07:58:36;;;;;;;;;;;;;;;20.61;48.31;99281.16;5078091;28;20387;-51
2022/09/28 08:01:03;;;;;;;;;;;;;;;20.61;48.42;99289.44;5058000;28;19963;-50
2022/09/28 08:03:29;;;;;;;;;;;;;;;20.60;48.62;99299.69;5068060;28;19947;-53
2022/09/28 08:05:56;;;;;;;;;;;;;;;20.60;48.49;99296.94;5068555;28;19932;-51
2022/09/28 08:08:22;;;;;;;;;;;;;;;20.61;48.81;99300.50;5065943;28;20027;-51
2022/09/28 08:10:47;;;;;;;;;;;;;;;20.60;49.00;99305.22;5073084;28;19982;-49
2022/09/28 08:13:15;;;;;;;;;;;;;;;20.60;48.80;99302.47;5069701;28;19984;-49
2022/09/28 08:15:41;;;;;;;;;;;;;;;20.61;48.85;99308.81;5074337;28;19943;-50
2022/09/28 08:18:06;;;;;;;;;;;;;;;20.63;48.83;99312.03;5078559;28;20430;-51
2022/09/28 08:23:18;;;;;;;;;;;;;;;20.60;48.15;99307.19;5049899;28;20036;-51
2022/09/28 08:25:47;;;;;;;;;;;;;;;20.60;48.55;99310.75;5056513;28;20047;-48
2022/09/28 08:28:14;;;;;;;;;;;;;;;20.59;48.65;99316.59;5077951;28;19967;-51
2022/09/28 08:30:40;;;;;;;;;;;;;;;20.60;48.65;99316.28;5077229;28;20440;-51
2022/09/28 08:33:06;;;;;;;;;;;;;;;20.51;48.03;99313.56;5079815;28;19932;-50
2022/09/28 08:35:32;;;;;;;;;;;;;;;20.30;47.98;99323.63;5075182;28;19932;-49
2022/09/28 08:37:58;;;;;;;;;;;;;;;20.50;48.05;99324.91;5071850;28;19928;-50
2022/09/28 08:40:24;;;;;;;;;;;;;;;20.56;48.24;99329.16;5066665;28;19931;-50
2022/09/28 08:42:52;;;;;;;;;;;;;;;20.55;48.00;99333.03;5077147;28;19924;-49
2022/09/28 08:45:20;;;;;;;;;;;;;;;20.36;46.95;99330.59;5056262;28;20074;-52
2022/09/28 08:50:38;;;;;;;;;;;;;;;20.15;47.89;99336.00;5065390;28;20018;-44
2022/09/28 08:53:22;;;;;;;;;;;;;;;20.04;48.26;99330.00;5082482;28;20042;-46
2022/09/28 08:55:48;;;;;;;;;;;;;;;19.69;49.00;99333.84;5077783;28;20031;-49
2022/09/28 08:58:18;;;;;;;;;;;;;;;19.75;49.42;99343.63;5083811;28;20419;-51
2022/09/28 09:00:46;;;;;;;;;;;;;;;20.09;48.19;99339.25;5078380;28;19964;-44
2022/09/28 09:03:12;;;;;;;;;;;;;;;20.33;48.18;99341.50;5066878;28;19956;-49
2022/09/28 09:05:48;;;;;;;;;;;;;;;20.45;48.20;99345.22;5054764;28;19940;-52
2022/09/28 09:08:20;;;;;;;;;;;;;;;20.51;47.98;99341.22;5080760;28;20019;-51
2022/09/28 09:10:48;;;;;;;;;;;;;;;20.43;48.17;99350.28;5064942;28;19979;-49
2022/09/28 09:13:34;;;;;;;;;;;;;;;20.52;48.06;99351.13;5062678;28;19972;-52
2022/09/28 09:16:19;;;;;;;;;;;;;;;20.41;48.27;99347.03;5071100;28;20543;-51
2022/09/28 09:18:54;;;;;;;;;;;;;;;20.53;48.21;99346.41;5068067;28;19934;-51
2022/09/28 09:21:26;;;;;;;;;;;;;;;20.53;48.27;99346.41;5088896;28;19975;-52
2022/09/28 09:23:54;;;;;;;;;;;;;;;20.51;48.10;99357.78;5082712;28;20010;-51
2022/09/28 09:26:20;;;;;;;;;;;;;;;20.57;48.19;99365.91;5085694;28;20015;-49
2022/09/28 09:29:11;;;;;;;;;;;;;;;20.53;48.34;99363.78;5080001;28;19932;-52
2022/09/28 09:31:41;;;;;;;;;;;;;;;20.56;48.49;99362.34;5068357;28;20072;-53
2022/09/28 09:37:08;;;;;;;;;;;;;;;20.58;48.25;99353.72;5152441;27;19925;-50
2022/09/28 09:39:37;;;;;;;;;;;;;;;20.58;48.19;99360.06;5111039;27;19974;-52
2022/09/28 09:44:49;;;;;;;;;;;;;;;20.57;48.34;99358.44;5149009;27;19937;-49
2022/09/28 09:47:16;;;;;;;;;;;;;;;20.58;48.35;99365.59;5102009;27;20356;-50
2022/09/28 09:50:02;;;;;;;;;;;;;;;20.58;48.40;99371.13;5134425;27;19967;-49
2022/09/28 09:52:55;;;;;;;;;;;;;;;20.56;47.79;99372.59;5117514;27;20006;-51
2022/09/28 09:55:24;;;;;;;;;;;;;;;20.59;47.37;99363.63;5130981;27;19953;-51
2022/09/28 09:57:59;;;;;;;;;;;;;;;20.58;47.40;99362.00;5114395;27;19927;-50
2022/09/28 10:00:24;;;;;;;;;;;;;;;20.59;47.92;99369.97;5133699;27;20013;-52
2022/09/28 10:02:50;;;;;;;;;;;;;;;20.59;48.08;99375.50;5110432;27;19935;-51
2022/09/28 10:05:17;;;;;;;;;;;;;;;20.61;47.65;99364.94;5135033;27;19934;-51
2022/09/28 10:08:03;;;;;;;;;;;;;;;20.61;47.90;99370.47;5132564;27;19988;-52
2022/09/28 10:10:29;;;;;;;;;;;;;;;20.59;47.62;99372.72;5118846;27;20625;-52
2022/09/28 10:12:55;;;;;;;;;;;;;;;20.57;47.85;99366.72;5130075;27;19975;-50
2022/09/28 10:15:23;;;;;;;;;;;;;;;20.60;48.46;99371.63;5132861;27;19923;-51
2022/09/28 10:17:48;;;;;;;;;;;;;;;20.60;48.09;99365.28;5108986;27;20456;-50
2022/09/28 10:20:14;;;;;;;;;;;;;;;20.59;47.47;99364.44;5133014;27;19931;-51
2022/09/28 10:22:40;;;;;;;;;;;;;;;20.62;47.97;99368.50;5113421;27;20075;-47
2022/09/28 10:25:07;;;;;;;;;;;;;;;20.64;47.86;99357.91;5134426;27;19931;-50
2022/09/28 10:27:34;;;;;;;;;;;;;;;20.62;47.67;99363.78;5137771;27;20363;-48
2022/09/28 10:30:01;;;;;;;;;;;;;;;20.64;47.97;99369.81;5116989;27;19999;-52
2022/09/28 10:32:35;;;;;;;;;;;;;;;20.64;47.94;99364.28;5115049;27;19935;-51
2022/09/28 10:35:20;;;;;;;;;;;;;;;20.65;48.10;99370.63;5111365;27;20390;-50
2022/09/28 10:37:53;;;;;;;;;;;;;;;20.66;48.38;99369.47;5112127;27;20386;-49
2022/09/28 10:40:28;;;;;;;;;;;;;;;20.25;47.17;99362.47;5126258;27;20371;-50
2022/09/28 10:43:02;;;;;;;;;;;;;;;20.50;46.88;99371.94;5105054;27;20027;-51
2022/09/28 10:45:30;;;;;;;;;;;;;;;20.60;47.15;99373.56;5105736;27;20042;-51
2022/09/28 10:47:55;;;;;;;;;;;;;;;20.61;47.24;99367.69;5114738;27;19928;-50
2022/09/28 10:50:22;;;;;;;;;;;;;;;20.65;47.41;99373.41;5128054;27;21020;-50
2022/09/28 10:52:48;;;;;;;;;;;;;;;20.67;47.44;99376.63;5123117;27;19949;-49
2022/09/28 10:55:22;;;;;;;;;;;;;;;20.54;47.01;99378.44;5122805;27;19928;-49
2022/09/28 10:57:47;;;;;;;;;;;;;;;20.68;47.24;99379.09;5097572;28;19981;-50
2022/09/28 11:00:28;;;;;;;;;;;;;;;20.69;47.39;99374.38;5122969;27;20301;-50
2022/09/28 11:02:53;;;;;;;;;;;;;;;20.68;47.43;99368.03;5099046;28;20026;-49
2022/09/28 11:05:20;;;;;;;;;;;;;;;20.69;47.63;99374.38;5120554;27;19928;-49
2022/09/28 11:07:45;;;;;;;;;;;;;;;20.70;48.09;99374.03;5098924;28;20010;-44
2022/09/28 11:10:21;;;;;;;;;;;;;;;20.78;48.37;99370.44;5122843;27;19997;-52
2022/09/28 11:12:46;;;;;;;;;;;;;;;20.70;49.15;99374.03;5096560;28;20027;-49
2022/09/28 11:15:16;;;;;;;;;;;;;;;20.76;48.71;99364.41;5099458;27;20316;-49
2022/09/28 11:17:42;;;;;;;;;;;;;;;20.74;48.56;99363.94;5092748;27;19974;-48
2022/09/28 11:22:59;;;;;;;;;;;;;;;20.74;48.63;99371.41;5154572;27;19927;-52
2022/09/28 11:25:25;;;;;;;;;;;;;;;20.73;48.92;99372.56;5137045;27;20017;-51
2022/09/28 11:30:28;;;;;;;;;;;;;;;20.75;48.88;99371.06;5168528;27;19938;-49
2022/09/28 11:32:56;;;;;;;;;;;;;;;20.73;48.46;99362.31;5125274;27;20011;-47
2022/09/28 11:35:24;;;;;;;;;;;;;;;20.74;48.52;99363.94;5125764;27;20018;-47
2022/09/28 11:37:53;;;;;;;;;;;;;;;20.75;48.48;99362.78;5126473;27;20014;-50
2022/09/28 11:40:26;;;;;;;;;;;;;;;20.75;48.48;99367.50;5149918;27;20018;-49
2022/09/28 11:42:56;;;;;;;;;;;;;;;20.78;48.58;99366.84;5133309;27;20401;-46
2022/09/28 11:45:41;;;;;;;;;;;;;;;20.76;48.70;99363.59;5153546;27;19931;-48
2022/09/28 11:48:08;;;;;;;;;;;;;;;20.77;48.89;99373.53;5135277;27;20026;-47
2022/09/28 11:50:53;;;;;;;;;;;;;;;20.85;48.89;99375.44;5149024;27;20018;-43
2022/09/28 11:53:21;;;;;;;;;;;;;;;20.92;49.24;99363.88;5136409;27;19966;-51
2022/09/28 11:55:53;;;;;;;;;;;;;;;20.84;48.66;99368.28;5155174;27;20033;-48
2022/09/28 11:58:35;;;;;;;;;;;;;;;20.91;49.22;99374.16;5155093;27;20016;-50
2022/09/28 12:01:04;;;;;;;;;;;;;;;20.92;49.31;99372.19;5154082;27;20018;-49
2022/09/28 12:03:39;;;;;;;;;;;;;;;20.86;49.00;99365.22;5155281;27;20319;-49
2022/09/28 12:06:05;;;;;;;;;;;;;;;20.59;48.05;99369.97;5151206;27;19923;-46
2022/09/28 12:08:33;;;;;;;;;;;;;;;20.26;48.41;99373.22;5134261;27;19950;-44
2022/09/28 12:11:01;;;;;;;;;;;;;;;20.27;48.15;99368.50;5155033;27;19935;-42
2022/09/28 12:13:27;;;;;;;;;;;;;;;20.50;48.33;99367.22;5151753;27;19924;-49
2022/09/28 12:16:11;;;;;;;;;;;;;;;20.71;48.15;99369.31;5149454;27;20393;-47
2022/09/28 12:19:05;;;;;;;;;;;;;;;20.83;48.49;99374.16;5140491;27;19927;-49
2022/09/28 12:21:35;;;;;;;;;;;;;;;20.86;48.63;99359.69;5132788;27;19962;-48
2022/09/28 12:24:05;;;;;;;;;;;;;;;20.83;48.46;99365.88;5130150;27;20037;-50
2022/09/28 12:26:35;;;;;;;;;;;;;;;20.85;48.48;99367.13;5129095;27;20021;-49
2022/09/28 12:29:05;;;;;;;;;;;;;;;20.85;48.46;99363.56;5129357;27;19950;-50
2022/09/28 12:31:33;;;;;;;;;;;;;;;20.86;48.61;99363.25;5124582;27;19959;-51
2022/09/28 12:33:59;;;;;;;;;;;;;;;20.87;48.51;99364.88;5150960;27;20453;-52
2022/09/28 12:36:44;;;;;;;;;;;;;;;20.89;48.57;99365.34;5151256;27;19945;-50
2022/09/28 12:39:29;;;;;;;;;;;;;;;20.87;48.75;99362.09;5156022;27;20010;-50
2022/09/28 12:42:35;;;;;;;;;;;;;;;20.87;48.64;99366.84;5115412;27;20384;-50
2022/09/28 12:45:20;;;;;;;;;;;;;;;20.86;48.69;99360.50;5122624;27;19927;-53
2022/09/28 12:47:56;;;;;;;;;;;;;;;20.87;48.30;99361.31;5124071;27;19932;-56
2022/09/28 12:50:25;;;;;;;;;;;;;;;20.85;47.86;99363.56;5101886;27;19927;-55
2022/09/28 12:53:31;;;;;;;;;;;;;;;20.87;47.83;99358.53;5111066;27;20329;-55
2022/09/28 12:56:05;;;;;;;;;;;;;;;20.86;47.41;99362.44;5120533;27;19935;-49
2022/09/28 12:58:35;;;;;;;;;;;;;;;20.87;47.41;99361.31;5119389;27;20406;-50
2022/09/28 13:01:20;;;;;;;;;;;;;;;20.83;46.79;99366.66;5135023;27;19967;-50
2022/09/28 13:03:51;;;;;;;;;;;;;;;20.84;46.77;99368.28;5136608;27;20359;-50
2022/09/28 13:06:24;;;;;;;;;;;;;;;20.83;45.84;99363.91;5139335;27;19966;-48
2022/09/28 13:09:10;;;;;;;;;;;;;;;20.83;46.62;99371.41;5117590;28;20027;-46
2022/09/28 13:11:48;;;;;;;;;;;;;;;20.82;45.90;99358.72;5112287;27;20011;-46
2022/09/28 13:14:23;;;;;;;;;;;;;;;20.81;46.33;99366.16;5142501;27;20350;-47
2022/09/28 13:17:08;;;;;;;;;;;;;;;20.86;46.28;99360.50;5134582;27;19982;-47